createdAt,value
2023-03-19T00:04:33.411Z,22.98
2023-03-19T00:09:37.837Z,23.35
2023-03-19T00:14:41.032Z,21.17
2023-03-19T00:19:44.860Z,21.85
2023-03-19T00:24:47.455Z,20.98
2023-03-19T00:29:50.145Z,20.77
2023-03-19T00:34:53.244Z,20.65
2023-03-19T00:39:55.729Z,19.27
2023-03-19T00:44:58.710Z,20.98
2023-03-19T00:50:01.469Z,22.08
2023-03-19T00:55:04.342Z,21.33
2023-03-19T01:00:09.475Z,21.33
2023-03-19T01:05:12.657Z,21.70
2023-03-19T01:10:17.998Z,27.75
2023-03-19T01:20:25.784Z,23.67
2023-03-19T01:25:28.367Z,24.42
2023-03-19T01:30:41.300Z,26.00
2023-03-19T01:35:59.708Z,27.88
2023-03-19T01:41:09.752Z,28.80
2023-03-19T01:46:31.525Z,30.27
2023-03-19T01:57:14.112Z,31.92
2023-03-19T02:02:37.080Z,30.55
2023-03-19T02:07:49.485Z,30.80
2023-03-19T02:12:52.272Z,28.90
2023-03-19T02:17:57.175Z,30.37
2023-03-19T02:23:12.029Z,32.78
2023-03-19T02:28:22.560Z,34.55
2023-03-19T02:33:28.414Z,37.95
2023-03-19T02:38:34.597Z,37.42
2023-03-19T02:43:41.474Z,35.53
2023-03-19T02:48:44.080Z,35.08
2023-03-19T02:53:46.533Z,31.35
2023-03-19T02:58:49.334Z,28.90
2023-03-19T03:03:52.176Z,29.07
2023-03-19T03:08:54.792Z,27.30
2023-03-19T03:13:57.824Z,28.60
2023-03-19T03:19:04.472Z,27.17
2023-03-19T03:24:07.390Z,29.60
2023-03-19T03:29:09.807Z,30.00
2023-03-19T03:34:12.598Z,44.20
2023-03-19T03:39:15.120Z,45.47
2023-03-19T03:44:17.793Z,36.27
2023-03-19T03:49:21.115Z,37.05
2023-03-19T03:54:26.909Z,35.05
2023-03-19T03:59:31.764Z,32.97
2023-03-19T04:04:34.524Z,30.98
2023-03-19T04:09:37.286Z,29.07
2023-03-19T04:14:41.590Z,27.80
2023-03-19T04:19:44.915Z,26.90
2023-03-19T04:24:47.481Z,26.70
2023-03-19T04:29:50.347Z,29.20
2023-03-19T04:39:58.278Z,18.27
2023-03-19T04:50:09.934Z,27.00
2023-03-19T04:55:14.840Z,28.35
2023-03-19T05:00:28.369Z,29.08
2023-03-19T05:05:31.179Z,27.65
2023-03-19T05:10:35.479Z,26.67
2023-03-19T05:15:42.588Z,28.30
2023-03-19T05:20:48.380Z,27.13
2023-03-19T05:26:07.009Z,27.73
2023-03-19T05:31:28.236Z,28.02
2023-03-19T05:36:31.058Z,31.00
2023-03-19T05:41:41.662Z,32.08
2023-03-19T05:46:44.355Z,29.38
2023-03-19T05:51:47.359Z,31.57
2023-03-19T05:56:50.049Z,29.63
2023-03-19T06:02:10.080Z,25.15
2023-03-19T06:07:14.241Z,24.33
2023-03-19T06:12:17.289Z,27.63
2023-03-19T06:17:38.322Z,25.35
2023-03-19T06:22:44.746Z,26.35
2023-03-19T06:27:53.220Z,26.88
2023-03-19T06:33:17.249Z,28.00
2023-03-19T06:38:22.640Z,26.65
2023-03-19T06:43:25.335Z,25.55
2023-03-19T06:48:36.710Z,26.73
2023-03-19T06:53:41.642Z,28.83
2023-03-19T07:03:47.121Z,29.08
2023-03-19T07:08:49.730Z,27.20
2023-03-19T07:13:52.221Z,29.08
2023-03-19T07:18:57.070Z,32.72
2023-03-19T07:24:02.806Z,30.63
2023-03-19T07:29:08.532Z,31.98
2023-03-19T07:34:14.695Z,30.05
2023-03-19T07:39:20.973Z,29.08
2023-03-19T07:44:24.230Z,30.15
2023-03-19T07:49:27.861Z,30.58
2023-03-19T07:54:31.439Z,31.25
2023-03-19T07:59:37.215Z,30.00
2023-03-19T08:04:40.572Z,28.88
2023-03-19T08:09:43.696Z,27.85
2023-03-19T08:14:48.270Z,27.58
2023-03-19T08:19:51.249Z,30.02
2023-03-19T08:24:54.823Z,24.80
2023-03-19T08:29:59.124Z,30.02
2023-03-19T08:35:02.382Z,28.38
2023-03-19T08:40:06.395Z,27.40
2023-03-19T08:45:11.509Z,27.70
2023-03-19T08:50:14.236Z,26.23
2023-03-19T08:55:20.095Z,26.15
2023-03-19T09:00:23.338Z,24.08
2023-03-19T09:10:33.195Z,23.15
2023-03-19T09:15:37.552Z,23.42
2023-03-19T09:20:46.941Z,23.10
2023-03-19T09:25:55.459Z,22.30
2023-03-19T09:31:00.206Z,23.30
2023-03-19T09:36:04.082Z,21.60
2023-03-19T09:41:10.567Z,20.50
2023-03-19T09:46:23.087Z,20.50
2023-03-19T09:51:42.756Z,22.08
2023-03-19T09:56:45.592Z,18.92
2023-03-19T10:01:53.757Z,19.73
2023-03-19T10:07:09.383Z,19.73
2023-03-19T10:12:34.863Z,23.48
2023-03-19T10:17:41.692Z,18.63
2023-03-19T10:23:18.221Z,16.65
2023-03-19T10:28:23.191Z,16.90
2023-03-19T10:33:34.762Z,19.40
2023-03-19T10:38:44.314Z,18.45
2023-03-19T10:43:53.208Z,17.08
2023-03-19T10:49:00.216Z,17.30
2023-03-19T10:54:03.630Z,16.67
2023-03-19T10:59:10.552Z,18.60
2023-03-19T11:04:22.341Z,20.45
2023-03-19T11:14:46.522Z,16.13
2023-03-19T11:19:55.733Z,31.40
2023-03-19T11:25:02.817Z,16.25
2023-03-19T11:30:22.105Z,14.73
2023-03-19T11:35:28.917Z,16.85
2023-03-19T11:40:37.583Z,15.80
2023-03-19T11:45:46.131Z,16.70
2023-03-19T11:51:01.371Z,14.40
2023-03-19T11:56:16.748Z,13.13
2023-03-19T12:01:39.181Z,12.93
2023-03-19T12:06:53.824Z,13.23
2023-03-19T12:12:20.487Z,14.20
2023-03-19T12:17:34.063Z,15.02
2023-03-19T12:23:14.928Z,12.77
2023-03-19T12:28:30.179Z,13.18
2023-03-19T12:33:45.027Z,12.80
2023-03-19T12:38:52.182Z,13.05
2023-03-19T12:44:15.165Z,13.68
2023-03-19T12:49:40.098Z,13.15
2023-03-19T12:54:46.012Z,14.48
2023-03-19T12:59:55.901Z,13.05
2023-03-19T13:05:10.109Z,11.95
2023-03-19T13:10:20.446Z,12.93
2023-03-19T13:15:35.295Z,13.07
2023-03-19T13:21:04.406Z,11.75
2023-03-19T13:26:10.031Z,11.20
2023-03-19T13:31:21.224Z,11.40
2023-03-19T13:36:28.114Z,11.35
2023-03-19T13:41:33.587Z,11.32
2023-03-19T13:46:39.541Z,11.13
2023-03-19T13:51:42.262Z,11.32
2023-03-19T13:57:07.930Z,10.85
2023-03-19T14:02:22.588Z,11.40
2023-03-19T14:07:28.443Z,11.75
2023-03-19T14:12:32.373Z,11.68
2023-03-19T14:17:36.228Z,12.65
2023-03-19T14:22:41.568Z,12.90
2023-03-19T14:27:48.990Z,11.75
2023-03-19T14:32:52.444Z,10.77
2023-03-19T14:37:57.437Z,12.43
2023-03-19T14:43:18.097Z,13.80
2023-03-19T14:48:27.457Z,13.38
2023-03-19T14:53:51.415Z,14.60
2023-03-19T14:58:56.151Z,14.10
2023-03-19T15:04:07.527Z,14.73
2023-03-19T15:09:20.854Z,15.75
2023-03-19T15:19:32.409Z,17.33
2023-03-19T15:24:36.412Z,16.30
2023-03-19T15:29:38.743Z,17.95
2023-03-19T15:34:42.508Z,16.90
2023-03-19T15:39:49.304Z,14.93
2023-03-19T15:45:07.657Z,17.48
2023-03-19T15:50:18.389Z,15.40
2023-03-19T15:55:21.513Z,16.67
2023-03-19T16:00:24.734Z,16.45
2023-03-19T16:05:33.800Z,16.98
2023-03-19T16:10:39.169Z,18.00
2023-03-19T16:15:45.933Z,18.05
2023-03-19T16:21:02.286Z,18.88
2023-03-19T16:26:15.020Z,18.30
2023-03-19T16:31:24.157Z,18.83
2023-03-19T16:36:31.962Z,19.80
2023-03-19T16:41:36.197Z,19.65
2023-03-19T16:46:38.647Z,19.63
2023-03-19T16:51:41.032Z,20.37
2023-03-19T16:56:43.548Z,21.30
2023-03-19T17:01:45.945Z,22.70
2023-03-19T17:06:50.905Z,22.70
2023-03-19T17:11:56.530Z,22.45
2023-03-19T17:16:59.330Z,23.35
2023-03-19T17:22:02.433Z,23.55
2023-03-19T17:32:16.875Z,22.92
2023-03-19T17:37:21.025Z,23.75
2023-03-19T17:42:25.251Z,22.75
2023-03-19T17:47:27.649Z,22.80
2023-03-19T17:52:30.632Z,23.08
2023-03-19T17:57:39.434Z,38.97
2023-03-19T18:02:41.914Z,67.85
2023-03-19T18:07:49.068Z,55.87
2023-03-19T18:12:52.331Z,47.38
2023-03-19T18:22:59.103Z,44.00
2023-03-19T18:28:04.734Z,65.57
2023-03-19T18:33:13.064Z,76.28
2023-03-19T18:38:21.700Z,61.17
2023-03-19T18:43:24.649Z,55.63
2023-03-19T18:48:29.113Z,55.72
2023-03-19T18:53:32.585Z,54.35
2023-03-19T18:58:35.307Z,49.33
2023-03-19T19:03:38.455Z,44.70
2023-03-19T19:08:44.316Z,39.30
2023-03-19T19:14:06.403Z,36.47
2023-03-19T19:19:22.808Z,35.55
2023-03-19T19:24:26.350Z,34.92
2023-03-19T19:34:32.117Z,42.07
2023-03-19T19:39:34.592Z,47.58
2023-03-19T19:44:37.405Z,43.50
2023-03-19T19:49:39.820Z,43.72
2023-03-19T19:54:42.272Z,42.72
2023-03-19T19:59:47.832Z,43.43
2023-03-19T20:04:50.602Z,41.33
2023-03-19T20:09:53.415Z,42.13
2023-03-19T20:14:56.079Z,42.67
2023-03-19T20:19:58.387Z,47.80
2023-03-19T20:25:01.147Z,57.63
2023-03-19T20:30:05.634Z,67.20
2023-03-19T20:35:17.098Z,75.70
2023-03-19T20:40:21.580Z,71.03
2023-03-19T20:45:33.684Z,59.05
2023-03-19T20:50:37.272Z,44.88
2023-03-19T20:55:43.231Z,24.10
2023-03-19T21:00:46.197Z,16.67
2023-03-19T21:05:52.719Z,28.77
2023-03-19T21:10:55.416Z,28.05
2023-03-19T21:15:58.488Z,28.52
2023-03-19T21:21:01.375Z,47.95
2023-03-19T21:26:15.335Z,39.97
2023-03-19T21:31:22.470Z,52.67
2023-03-19T21:36:30.553Z,45.30
2023-03-19T21:41:36.158Z,41.85
2023-03-19T21:46:40.690Z,49.10
2023-03-19T21:51:47.705Z,50.53
2023-03-19T21:56:50.489Z,48.63
2023-03-19T22:01:56.495Z,53.83
2023-03-19T22:06:59.270Z,34.00
2023-03-19T22:12:01.708Z,25.80
2023-03-19T22:17:05.839Z,23.40
2023-03-19T22:22:09.439Z,25.38
2023-03-19T22:27:18.498Z,27.63
2023-03-19T22:32:21.133Z,30.58
2023-03-19T22:37:31.372Z,32.17
2023-03-19T22:42:34.061Z,30.40
2023-03-19T22:47:38.659Z,58.92
2023-03-19T22:52:41.261Z,67.10
2023-03-19T22:57:44.154Z,55.30
2023-03-19T23:02:57.864Z,45.38
2023-03-19T23:08:17.607Z,39.25
2023-03-19T23:13:22.353Z,49.83
2023-03-19T23:18:35.678Z,43.70
2023-03-19T23:23:39.124Z,46.88
2023-03-19T23:28:41.655Z,38.00
2023-03-19T23:33:46.429Z,38.13
2023-03-19T23:38:48.721Z,37.97
2023-03-19T23:43:55.062Z,37.58
2023-03-19T23:49:00.272Z,35.28
2023-03-19T23:54:02.797Z,37.10
2023-03-19T23:59:05.922Z,37.60
